Time;durP1;ratioP1;P1;durP2;ratioP2;P2;SDS_P1;SDS_P2;PMS_P1;PMS_P2;Temp;Humidity;BMP_temperature;BMP_pressure;BME280_temperature;BME280_humidity;BME280_pressure;Samples;Min_cycle;Max_cycle;Signal;HPM_P1;HPM_P2
2022/12/26 00:01:50;;;;;;;8.43;4.60;;;;;;;;;;4971658;28;20046;-67
2022/12/26 00:04:16;;;;;;;11.17;5.40;;;;;;;;;;4939791;28;20038;-67
2022/12/26 00:06:42;;;;;;;10.17;4.20;;;;;;;;;;4972103;28;20453;-67
2022/12/26 00:09:08;;;;;;;5.37;4.17;;;;;;;;;;4972798;28;20042;-68
2022/12/26 00:11:34;;;;;;;6.53;3.67;;;;;;;;;;4956291;28;20041;-67
2022/12/26 00:14:03;;;;;;;11.27;3.83;;;;;;;;;;4955993;28;20039;-67
2022/12/26 00:16:28;;;;;;;9.00;4.07;;;;;;;;;;4972907;28;20125;-67
2022/12/26 00:18:54;;;;;;;6.17;3.80;;;;;;;;;;4955685;28;20197;-67
2022/12/26 00:21:20;;;;;;;8.03;4.47;;;;;;;;;;4939511;28;20046;-67
2022/12/26 00:23:46;;;;;;;8.73;4.37;;;;;;;;;;4972700;28;20045;-67
2022/12/26 00:26:13;;;;;;;6.83;4.00;;;;;;;;;;4972175;28;20545;-67
2022/12/26 00:28:39;;;;;;;9.40;4.37;;;;;;;;;;4955662;28;20121;-67
2022/12/26 00:31:05;;;;;;;6.27;4.13;;;;;;;;;;4956246;28;20118;-67
2022/12/26 00:33:32;;;;;;;9.77;4.50;;;;;;;;;;4956099;28;20457;-67
2022/12/26 00:36:06;;;;;;;9.93;4.77;;;;;;;;;;4955252;28;20046;-67
2022/12/26 00:38:33;;;;;;;6.63;4.17;;;;;;;;;;4955673;28;20038;-66
2022/12/26 00:40:58;;;;;;;7.30;4.27;;;;;;;;;;4971299;28;20050;-67
2022/12/26 00:43:24;;;;;;;8.60;4.80;;;;;;;;;;4971487;28;20046;-67
2022/12/26 00:45:49;;;;;;;7.83;4.37;;;;;;;;;;4971327;28;20038;-67
2022/12/26 00:48:15;;;;;;;6.70;4.50;;;;;;;;;;4971060;28;20066;-67
2022/12/26 00:50:40;;;;;;;12.13;6.10;;;;;;;;;;4972472;28;20042;-67
2022/12/26 00:53:06;;;;;;;8.43;5.57;;;;;;;;;;4970790;28;20035;-68
2022/12/26 00:55:32;;;;;;;11.30;5.13;;;;;;;;;;4971571;28;20030;-67
2022/12/26 00:57:57;;;;;;;12.93;5.70;;;;;;;;;;4955197;28;20050;-68
2022/12/26 01:00:23;;;;;;;8.90;5.90;;;;;;;;;;4970592;28;20043;-67
2022/12/26 01:02:52;;;;;;;10.20;5.73;;;;;;;;;;4970655;28;20479;-68
2022/12/26 01:05:18;;;;;;;12.30;5.63;;;;;;;;;;4937899;28;20130;-69
2022/12/26 01:07:43;;;;;;;13.80;5.77;;;;;;;;;;4969977;28;20126;-68
2022/12/26 01:10:10;;;;;;;11.33;7.23;;;;;;;;;;4970767;28;20144;-68
2022/12/26 01:12:36;;;;;;;9.30;5.63;;;;;;;;;;4938336;28;20035;-69
2022/12/26 01:15:01;;;;;;;8.50;6.07;;;;;;;;;;4955179;28;20049;-68
2022/12/26 01:17:29;;;;;;;13.97;6.40;;;;;;;;;;4972161;28;20039;-68
2022/12/26 01:19:55;;;;;;;10.53;6.50;;;;;;;;;;4970918;28;20070;-67
2022/12/26 01:22:21;;;;;;;10.33;6.13;;;;;;;;;;4972076;28;20042;-67
2022/12/26 01:24:47;;;;;;;13.63;5.97;;;;;;;;;;4972051;28;20049;-67
2022/12/26 01:27:13;;;;;;;9.80;6.03;;;;;;;;;;4955196;28;20380;-67
2022/12/26 01:29:38;;;;;;;10.93;6.13;;;;;;;;;;4971083;28;20042;-67
2022/12/26 01:32:04;;;;;;;10.07;5.53;;;;;;;;;;4972323;28;20084;-68
2022/12/26 01:34:32;;;;;;;9.47;5.43;;;;;;;;;;4971179;28;20039;-67
2022/12/26 01:36:57;;;;;;;16.03;6.17;;;;;;;;;;4955105;28;20104;-67
2022/12/26 01:39:23;;;;;;;11.80;5.87;;;;;;;;;;4971013;28;20098;-66
2022/12/26 01:41:48;;;;;;;12.60;4.90;;;;;;;;;;4970927;28;20038;-67
2022/12/26 01:44:33;;;;;;;13.37;5.60;;;;;;;;;;4970695;28;20081;-67
2022/12/26 01:46:58;;;;;;;12.57;4.70;;;;;;;;;;4971074;28;20097;-67
2022/12/26 01:49:34;;;;;;;13.03;4.70;;;;;;;;;;4954749;28;20082;-67
2022/12/26 01:52:02;;;;;;;7.90;4.80;;;;;;;;;;4970836;28;20101;-67
2022/12/26 01:54:30;;;;;;;8.73;4.30;;;;;;;;;;4971556;28;20362;-67
2022/12/26 01:56:56;;;;;;;15.37;5.20;;;;;;;;;;4973229;28;20276;-68
2022/12/26 01:59:23;;;;;;;13.50;5.73;;;;;;;;;;4940488;28;20101;-67
2022/12/26 02:01:51;;;;;;;9.53;5.40;;;;;;;;;;4971929;28;20587;-67
2022/12/26 02:07:04;;;;;;;11.87;4.93;;;;;;;;;;4958593;28;20057;-68
2022/12/26 02:09:30;;;;;;;15.67;6.10;;;;;;;;;;4974405;28;20477;-69
2022/12/26 02:11:59;;;;;;;8.40;5.10;;;;;;;;;;4942274;28;20043;-68
2022/12/26 02:14:25;;;;;;;16.10;5.33;;;;;;;;;;4958582;28;20108;-68
2022/12/26 02:16:51;;;;;;;12.93;5.20;;;;;;;;;;4958085;28;20489;-68
2022/12/26 02:19:38;;;;;;;9.03;4.53;;;;;;;;;;4975113;28;20192;-68
2022/12/26 02:22:14;;;;;;;10.37;4.90;;;;;;;;;;4975110;28;20062;-68
2022/12/26 02:24:56;;;;;;;14.60;5.17;;;;;;;;;;4974142;28;20053;-68
2022/12/26 02:27:41;;;;;;;7.23;4.77;;;;;;;;;;4957941;28;20043;-68
2022/12/26 02:30:06;;;;;;;12.30;4.93;;;;;;;;;;4974935;28;20031;-68
2022/12/26 02:32:38;;;;;;;12.37;4.93;;;;;;;;;;4974960;28;20035;-68
2022/12/26 02:35:13;;;;;;;11.13;4.83;;;;;;;;;;4941989;28;20049;-68
2022/12/26 02:37:58;;;;;;;9.23;4.73;;;;;;;;;;4941932;28;20045;-68
2022/12/26 02:40:41;;;;;;;8.43;4.20;;;;;;;;;;4973470;28;20097;-68
2022/12/26 02:43:21;;;;;;;10.40;4.77;;;;;;;;;;4941589;28;20044;-68
2022/12/26 02:48:48;;;;;;;8.77;4.40;;;;;;;;;;4957197;28;20149;-68
2022/12/26 03:14:17;;;;;;;7.63;4.07;;;;;;;;;;4973351;28;20042;-67
2022/12/26 03:19:31;;;;;;;8.33;4.67;;;;;;;;;;4972583;28;20041;-67
2022/12/26 03:21:58;;;;;;;8.87;5.40;;;;;;;;;;4973569;28;20047;-67
2022/12/26 03:24:24;;;;;;;7.83;4.80;;;;;;;;;;4972695;28;20066;-68
2022/12/26 03:26:51;;;;;;;9.63;4.50;;;;;;;;;;4973846;28;20460;-67
2022/12/26 03:32:04;;;;;;;6.97;3.80;;;;;;;;;;4972635;28;20039;-66
2022/12/26 03:34:29;;;;;;;11.47;4.40;;;;;;;;;;4956162;28;20062;-67
2022/12/26 03:37:01;;;;;;;8.07;4.60;;;;;;;;;;4956395;28;20137;-66
2022/12/26 04:19:22;;;;;;;9.93;4.47;;;;;;;;;;4956363;28;20625;-66
2022/12/26 04:19:23;;;;;;;6.20;4.10;;;;;;;;;;4971072;28;20038;-71
2022/12/26 04:44:54;;;;;;;10.53;5.00;;;;;;;;;;4968138;28;20461;-73
2022/12/26 04:47:20;;;;;;;6.90;4.43;;;;;;;;;;4952373;28;20038;-77
2022/12/26 04:55:14;;;;;;;8.80;4.93;;;;;;;;;;4989543;28;20117;-73
2022/12/26 04:57:40;;;;;;;9.67;4.67;;;;;;;;;;4989119;28;20113;-73
2022/12/26 05:00:06;;;;;;;13.70;5.77;;;;;;;;;;4971248;28;20041;-70
2022/12/26 05:10:57;;;;;;;9.60;5.93;;;;;;;;;;4954323;28;20074;-72
2022/12/26 05:13:22;;;;;;;10.90;6.30;;;;;;;;;;4975644;28;20464;-72
2022/12/26 05:29:30;;;;;;;16.90;6.77;;;;;;;;;;4977621;28;20154;-73
2022/12/26 05:31:55;;;;;;;14.77;8.33;;;;;;;;;;4980325;28;20653;-73
2022/12/26 05:34:21;;;;;;;13.80;7.07;;;;;;;;;;4962924;28;20045;-73
2022/12/26 05:36:49;;;;;;;14.80;8.00;;;;;;;;;;4969524;28;20041;-71
2022/12/26 05:39:14;;;;;;;11.00;5.87;;;;;;;;;;4978254;28;20486;-73
2022/12/26 05:41:42;;;;;;;10.03;5.40;;;;;;;;;;4995534;28;20038;-72
2022/12/26 05:44:08;;;;;;;13.10;6.03;;;;;;;;;;4988971;28;20030;-76
2022/12/26 05:46:34;;;;;;;11.43;4.50;;;;;;;;;;4967426;28;20034;-74
2022/12/26 05:49:00;;;;;;;7.83;4.47;;;;;;;;;;4946571;28;20063;-73
2022/12/26 05:51:25;;;;;;;8.93;4.57;;;;;;;;;;4967365;28;20037;-75
2022/12/26 05:53:51;;;;;;;6.20;4.33;;;;;;;;;;4980516;28;20463;-75
2022/12/26 05:56:17;;;;;;;9.17;4.37;;;;;;;;;;4964861;28;20164;-75
2022/12/26 05:58:43;;;;;;;7.13;4.53;;;;;;;;;;4967727;28;20027;-74
2022/12/26 06:01:13;;;;;;;6.97;4.40;;;;;;;;;;4949770;28;20114;-75
2022/12/26 06:03:38;;;;;;;7.60;4.80;;;;;;;;;;4982859;28;20034;-70
2022/12/26 06:06:05;;;;;;;8.93;4.40;;;;;;;;;;4981648;28;20066;-74
2022/12/26 06:08:30;;;;;;;6.67;4.37;;;;;;;;;;4981974;28;20026;-75
2022/12/26 06:10:56;;;;;;;5.93;3.83;;;;;;;;;;4967066;28;20400;-75
2022/12/26 06:13:21;;;;;;;7.90;3.93;;;;;;;;;;4964620;28;20384;-74
2022/12/26 06:37:32;;;;;;;;;;;;;;;;;;4973762;28;20473;-73
2022/12/26 06:39:57;;;;;;;11.13;4.53;;;;;;;;;;4957600;28;20028;-73
2022/12/26 06:42:23;;;;;;;7.87;4.03;;;;;;;;;;4957021;28;20089;-73
2022/12/26 06:44:49;;;;;;;5.10;3.30;;;;;;;;;;4957011;28;20453;-74
2022/12/26 06:47:32;;;;;;;6.90;3.60;;;;;;;;;;4972829;28;20081;-73
2022/12/26 06:49:58;;;;;;;5.83;3.00;;;;;;;;;;4955920;28;20047;-73
2022/12/26 06:52:23;;;;;;;6.93;3.27;;;;;;;;;;4956882;28;20035;-73
2022/12/26 06:54:49;;;;;;;5.23;3.60;;;;;;;;;;4956839;28;20050;-74
2022/12/26 06:57:14;;;;;;;7.43;3.90;;;;;;;;;;4972976;28;20354;-75
2022/12/26 06:59:40;;;;;;;7.20;4.50;;;;;;;;;;4973570;28;20142;-72
2022/12/26 07:02:08;;;;;;;8.03;4.80;;;;;;;;;;4956826;28;20042;-74
2022/12/26 07:04:33;;;;;;;10.67;3.80;;;;;;;;;;4972643;28;20082;-74
2022/12/26 07:06:59;;;;;;;8.53;3.93;;;;;;;;;;4940919;28;20083;-73
2022/12/26 07:09:24;;;;;;;6.93;3.70;;;;;;;;;;4956681;28;20372;-73
2022/12/26 07:11:50;;;;;;;5.77;3.50;;;;;;;;;;4971617;28;20078;-72
2022/12/26 07:14:16;;;;;;;4.40;3.20;;;;;;;;;;4972556;28;20141;-73
2022/12/26 07:16:42;;;;;;;9.43;3.70;;;;;;;;;;4973372;28;20154;-74
2022/12/26 07:19:09;;;;;;;8.67;3.60;;;;;;;;;;4956490;28;20039;-70
2022/12/26 07:21:41;;;;;;;6.20;4.50;;;;;;;;;;4957368;28;20362;-73
2022/12/26 07:24:20;;;;;;;8.43;4.33;;;;;;;;;;4972659;28;20070;-74
2022/12/26 07:26:46;;;;;;;5.30;3.17;;;;;;;;;;4973361;28;20551;-73
2022/12/26 07:29:12;;;;;;;6.00;3.80;;;;;;;;;;4973768;28;20038;-73
2022/12/26 07:31:39;;;;;;;6.17;3.50;;;;;;;;;;4973231;28;20089;-71
2022/12/26 07:34:04;;;;;;;8.53;3.03;;;;;;;;;;4972502;28;20133;-72
2022/12/26 07:36:30;;;;;;;7.23;3.27;;;;;;;;;;4956092;28;20117;-72
2022/12/26 07:38:56;;;;;;;7.17;3.17;;;;;;;;;;4972274;28;20258;-72
2022/12/26 07:44:07;;;;;;;5.97;3.27;;;;;;;;;;4973239;28;20090;-73
2022/12/26 07:46:33;;;;;;;4.80;2.97;;;;;;;;;;4971808;28;20034;-72
2022/12/26 07:48:58;;;;;;;5.80;2.60;;;;;;;;;;4971693;28;20050;-73
2022/12/26 07:51:24;;;;;;;6.90;3.40;;;;;;;;;;4971121;28;20105;-72
2022/12/26 07:53:49;;;;;;;4.50;3.20;;;;;;;;;;4955782;28;20046;-73
2022/12/26 07:56:15;;;;;;;5.27;3.90;;;;;;;;;;4955844;28;20315;-72
2022/12/26 07:58:40;;;;;;;5.30;3.37;;;;;;;;;;4971502;28;20050;-72
2022/12/26 08:01:06;;;;;;;7.63;4.03;;;;;;;;;;4971076;28;20043;-72
2022/12/26 08:03:32;;;;;;;6.90;3.83;;;;;;;;;;4939494;28;20046;-73
2022/12/26 08:05:58;;;;;;;6.07;3.70;;;;;;;;;;4972171;28;20050;-72
2022/12/26 08:08:23;;;;;;;9.00;4.20;;;;;;;;;;4970322;28;20045;-74
2022/12/26 08:10:57;;;;;;;6.63;3.20;;;;;;;;;;4939335;28;20397;-72
2022/12/26 08:13:22;;;;;;;5.70;3.10;;;;;;;;;;4954460;28;20054;-73
2022/12/26 08:15:48;;;;;;;7.63;4.67;;;;;;;;;;4988814;28;20100;-73
2022/12/26 08:18:13;;;;;;;7.77;5.10;;;;;;;;;;4991543;28;20044;-72
2022/12/26 08:20:39;;;;;;;10.30;4.83;;;;;;;;;;4959064;28;20042;-70
2022/12/26 08:23:04;;;;;;;7.30;4.60;;;;;;;;;;4990872;28;20058;-71
2022/12/26 08:25:30;;;;;;;5.90;3.47;;;;;;;;;;4991176;28;20049;-72
2022/12/26 08:27:55;;;;;;;3.40;2.53;;;;;;;;;;4990472;28;20070;-72
2022/12/26 08:30:22;;;;;;;4.50;2.73;;;;;;;;;;4990440;28;20483;-72
2022/12/26 08:32:49;;;;;;;5.70;2.67;;;;;;;;;;4958169;28;20042;-72
2022/12/26 08:35:14;;;;;;;7.03;2.90;;;;;;;;;;4990728;28;20092;-71
2022/12/26 08:37:40;;;;;;;6.40;3.30;;;;;;;;;;4974031;28;20490;-70
2022/12/26 08:40:07;;;;;;;5.80;3.20;;;;;;;;;;4974442;28;20385;-73
2022/12/26 08:42:33;;;;;;;4.60;2.93;;;;;;;;;;4957709;28;20046;-71
2022/12/26 08:44:59;;;;;;;4.93;2.80;;;;;;;;;;4990208;28;20030;-72
2022/12/26 08:47:26;;;;;;;4.47;2.37;;;;;;;;;;4990262;28;20117;-73
2022/12/26 08:49:52;;;;;;;4.73;2.37;;;;;;;;;;4989802;28;20069;-72
2022/12/26 08:52:17;;;;;;;6.13;2.80;;;;;;;;;;4991265;28;20034;-72
2022/12/26 08:54:43;;;;;;;10.23;3.00;;;;;;;;;;4990706;28;20038;-73
2022/12/26 08:57:08;;;;;;;8.13;3.73;;;;;;;;;;4992809;28;20034;-74
2022/12/26 08:59:34;;;;;;;6.57;3.40;;;;;;;;;;4992741;28;20038;-72
2022/12/26 09:01:59;;;;;;;4.33;3.00;;;;;;;;;;4991199;28;20483;-72
2022/12/26 09:04:25;;;;;;;5.13;3.00;;;;;;;;;;4991599;28;20375;-74
2022/12/26 09:06:51;;;;;;;7.53;3.87;;;;;;;;;;4958078;28;20034;-74
2022/12/26 09:09:16;;;;;;;7.87;4.00;;;;;;;;;;4990215;28;20102;-74
2022/12/26 09:11:42;;;;;;;7.50;3.40;;;;;;;;;;4989187;28;20437;-72
2022/12/26 09:14:08;;;;;;;9.47;3.80;;;;;;;;;;4973717;28;20038;-74
2022/12/26 09:16:37;;;;;;;9.10;3.90;;;;;;;;;;4973592;28;20133;-73
2022/12/26 09:19:04;;;;;;;9.00;3.47;;;;;;;;;;4989770;28;20440;-73
2022/12/26 09:21:30;;;;;;;6.67;3.03;;;;;;;;;;4989672;28;20050;-72
2022/12/26 09:23:56;;;;;;;8.03;3.10;;;;;;;;;;4989628;28;20038;-73
2022/12/26 09:26:22;;;;;;;9.90;3.00;;;;;;;;;;4990120;28;20456;-74
2022/12/26 09:28:50;;;;;;;4.37;2.63;;;;;;;;;;4990855;28;20061;-74
2022/12/26 09:31:17;;;;;;;7.27;3.00;;;;;;;;;;4974460;28;20134;-74
2022/12/26 09:33:43;;;;;;;6.97;2.97;;;;;;;;;;4990105;28;20038;-73
2022/12/26 09:36:11;;;;;;;7.17;3.23;;;;;;;;;;4973859;28;20039;-77
2022/12/26 09:38:37;;;;;;;7.77;3.17;;;;;;;;;;4957766;28;20061;-73
2022/12/26 09:41:14;;;;;;;7.13;3.50;;;;;;;;;;4990141;28;20499;-73
2022/12/26 09:43:47;;;;;;;11.87;3.67;;;;;;;;;;4990172;28;20042;-69
2022/12/26 09:46:17;;;;;;;6.63;2.80;;;;;;;;;;4989937;28;20111;-74
2022/12/26 09:48:51;;;;;;;4.07;2.80;;;;;;;;;;4989388;28;20038;-72
2022/12/26 09:51:16;;;;;;;3.17;2.53;;;;;;;;;;4968057;28;20035;-73
2022/12/26 09:53:45;;;;;;;6.03;2.93;;;;;;;;;;4953566;28;20038;-73
2022/12/26 09:56:13;;;;;;;4.80;2.73;;;;;;;;;;4970032;28;20083;-72
2022/12/26 09:58:43;;;;;;;5.33;2.50;;;;;;;;;;4971236;28;20054;-73
2022/12/26 10:01:20;;;;;;;4.53;2.40;;;;;;;;;;4971324;28;20069;-74
2022/12/26 10:03:51;;;;;;;4.03;2.60;;;;;;;;;;4953976;28;20451;-73
2022/12/26 10:06:18;;;;;;;6.97;3.13;;;;;;;;;;4970276;28;20058;-74
2022/12/26 10:08:44;;;;;;;6.27;2.40;;;;;;;;;;4970999;28;20042;-74
2022/12/26 10:11:14;;;;;;;4.10;2.30;;;;;;;;;;4938086;28;20054;-73
2022/12/26 10:13:48;;;;;;;3.97;2.35;;;;;;;;;;4953565;28;20035;-70
2022/12/26 10:16:16;;;;;;;4.73;2.63;;;;;;;;;;4970113;28;20123;-74
2022/12/26 10:18:59;;;;;;;4.73;2.77;;;;;;;;;;4970838;28;20057;-72
2022/12/26 10:21:34;;;;;;;4.23;2.37;;;;;;;;;;4969279;28;20493;-73
2022/12/26 10:24:04;;;;;;;7.07;2.83;;;;;;;;;;4970370;28;20043;-75
2022/12/26 10:26:31;;;;;;;6.40;2.67;;;;;;;;;;4973170;28;20077;-73
2022/12/26 10:29:00;;;;;;;5.37;2.30;;;;;;;;;;4957245;28;20038;-74
2022/12/26 10:31:31;;;;;;;5.67;2.57;;;;;;;;;;4973877;28;20050;-76
2022/12/26 10:34:09;;;;;;;4.57;2.50;;;;;;;;;;4972628;28;20038;-76
2022/12/26 10:36:46;;;;;;;6.67;2.80;;;;;;;;;;4956814;28;20432;-73
2022/12/26 10:39:30;;;;;;;3.97;2.73;;;;;;;;;;4973037;28;20473;-74
2022/12/26 10:41:58;;;;;;;5.43;2.90;;;;;;;;;;4972246;28;20059;-78
2022/12/26 10:44:24;;;;;;;5.27;2.80;;;;;;;;;;4972925;28;20083;-73
2022/12/26 10:46:58;;;;;;;4.73;2.80;;;;;;;;;;4957038;28;20042;-73
2022/12/26 10:49:24;;;;;;;4.20;2.37;;;;;;;;;;4958746;28;20484;-75
2022/12/26 10:51:51;;;;;;;5.57;2.97;;;;;;;;;;4972644;28;20038;-73
2022/12/26 10:54:18;;;;;;;6.60;2.97;;;;;;;;;;4973195;28;20069;-73
2022/12/26 10:56:46;;;;;;;6.03;3.17;;;;;;;;;;4972632;28;20045;-69
2022/12/26 10:59:22;;;;;;;4.80;2.80;;;;;;;;;;4972965;28;20126;-70
2022/12/26 11:01:49;;;;;;;6.43;2.70;;;;;;;;;;4940462;28;20129;-69
2022/12/26 11:04:17;;;;;;;5.87;2.60;;;;;;;;;;4973095;28;20034;-68
2022/12/26 11:06:43;;;;;;;3.37;2.10;;;;;;;;;;4972133;28;20046;-69
2022/12/26 11:09:23;;;;;;;6.00;2.73;;;;;;;;;;4973822;28;20053;-72
2022/12/26 11:11:51;;;;;;;5.15;2.60;;;;;;;;;;4978101;28;20475;-71
2022/12/26 11:14:25;;;;;;;10.27;3.00;;;;;;;;;;4972652;28;20128;-73
2022/12/26 11:16:51;;;;;;;6.63;2.93;;;;;;;;;;4972541;28;20046;-70
2022/12/26 11:19:37;;;;;;;4.87;2.90;;;;;;;;;;4973477;28;20038;-70
2022/12/26 11:22:21;;;;;;;6.50;3.13;;;;;;;;;;4940249;28;20157;-71
2022/12/26 11:25:10;;;;;;;6.27;3.30;;;;;;;;;;4973545;28;20123;-72
2022/12/26 11:27:37;;;;;;;8.70;3.77;;;;;;;;;;4967385;28;20046;-72
2022/12/26 11:30:09;;;;;;;7.03;3.67;;;;;;;;;;4972409;28;20081;-71
2022/12/26 11:32:35;;;;;;;5.23;3.80;;;;;;;;;;4973368;28;20051;-72
2022/12/26 11:35:01;;;;;;;4.37;3.57;;;;;;;;;;4956148;28;20424;-71
2022/12/26 11:37:30;;;;;;;6.83;4.27;;;;;;;;;;4972283;28;20045;-73
2022/12/26 11:39:56;;;;;;;10.73;4.40;;;;;;;;;;4972520;28;20038;-71
2022/12/26 11:42:22;;;;;;;7.53;4.23;;;;;;;;;;4972742;28;20078;-72
2022/12/26 11:44:51;;;;;;;5.70;3.80;;;;;;;;;;4971853;28;20042;-71
2022/12/26 11:47:19;;;;;;;7.13;4.57;;;;;;;;;;4956227;28;20089;-72
2022/12/26 11:49:48;;;;;;;5.73;4.27;;;;;;;;;;4971789;28;20062;-72
2022/12/26 11:52:29;;;;;;;9.17;5.00;;;;;;;;;;4938625;28;20467;-71
2022/12/26 11:54:55;;;;;;;8.38;4.20;;;;;;;;;;4955635;28;20070;-72
2022/12/26 11:57:21;;;;;;;4.60;3.50;;;;;;;;;;4971873;28;20073;-72
2022/12/26 11:59:48;;;;;;;5.87;3.10;;;;;;;;;;4955375;28;20042;-72
2022/12/26 12:02:22;;;;;;;9.53;3.80;;;;;;;;;;4971312;28;20042;-71
2022/12/26 12:04:49;;;;;;;4.60;3.30;;;;;;;;;;4955436;28;20046;-71
2022/12/26 12:07:20;;;;;;;9.83;3.83;;;;;;;;;;4970611;28;20038;-72
2022/12/26 12:09:57;;;;;;;4.63;3.23;;;;;;;;;;4971241;28;20082;-72
2022/12/26 12:12:26;;;;;;;8.37;3.60;;;;;;;;;;4937350;28;20039;-72
2022/12/26 12:15:04;;;;;;;10.07;3.50;;;;;;;;;;4955290;28;20122;-71
2022/12/26 12:17:36;;;;;;;5.90;3.70;;;;;;;;;;4955152;28;20457;-72
2022/12/26 12:20:02;;;;;;;7.30;3.43;;;;;;;;;;4971399;28;20080;-71
2022/12/26 12:22:47;;;;;;;5.97;3.47;;;;;;;;;;4955134;28;20047;-71
2022/12/26 12:25:24;;;;;;;6.60;3.60;;;;;;;;;;4955133;28;20147;-72
2022/12/26 12:27:56;;;;;;;11.80;4.60;;;;;;;;;;4971633;28;20133;-72
2022/12/26 12:30:41;;;;;;;8.63;4.37;;;;;;;;;;4972469;28;20045;-72
2022/12/26 12:33:07;;;;;;;8.30;4.07;;;;;;;;;;4953069;28;20082;-71
2022/12/26 12:35:41;;;;;;;11.10;4.23;;;;;;;;;;4957349;28;20445;-71
2022/12/26 12:38:19;;;;;;;7.20;3.50;;;;;;;;;;4973309;28;20381;-71
2022/12/26 12:40:49;;;;;;;8.90;4.63;;;;;;;;;;4972753;28;20049;-72
2022/12/26 12:43:26;;;;;;;6.90;4.03;;;;;;;;;;4955194;28;20093;-72
2022/12/26 12:46:00;;;;;;;10.10;4.20;;;;;;;;;;4970579;28;20039;-71
2022/12/26 12:48:37;;;;;;;9.43;4.50;;;;;;;;;;4971158;28;20050;-72
2022/12/26 12:51:12;;;;;;;7.10;4.47;;;;;;;;;;4953845;28;20579;-72
2022/12/26 12:54:00;;;;;;;10.80;4.97;;;;;;;;;;4954860;28;20519;-72
2022/12/26 12:56:39;;;;;;;10.70;4.30;;;;;;;;;;4965228;28;20070;-72
2022/12/26 12:59:13;;;;;;;7.75;3.88;;;;;;;;;;4971837;28;20140;-72
2022/12/26 13:01:41;;;;;;;8.90;3.93;;;;;;;;;;4970501;28;20083;-71
2022/12/26 13:04:07;;;;;;;6.40;3.70;;;;;;;;;;4954881;28;20456;-71
2022/12/26 13:06:38;;;;;;;7.97;4.07;;;;;;;;;;4954391;28;20031;-71
2022/12/26 13:09:07;;;;;;;9.00;4.30;;;;;;;;;;4970476;28;20034;-71
2022/12/26 13:11:42;;;;;;;12.43;4.03;;;;;;;;;;4969859;28;20137;-72
2022/12/26 13:14:11;;;;;;;8.57;4.20;;;;;;;;;;4970843;28;20035;-70
2022/12/26 13:16:42;;;;;;;7.97;3.73;;;;;;;;;;4970694;28;20137;-73
2022/12/26 13:19:11;;;;;;;7.73;3.83;;;;;;;;;;4972363;28;20038;-71
2022/12/26 13:21:38;;;;;;;8.67;4.10;;;;;;;;;;4970899;28;20054;-71
2022/12/26 13:24:23;;;;;;;7.53;4.40;;;;;;;;;;4970627;28;20174;-72
2022/12/26 13:26:59;;;;;;;8.17;3.23;;;;;;;;;;4992095;28;20049;-70
2022/12/26 13:29:33;;;;;;;7.00;3.70;;;;;;;;;;4989801;28;20042;-68
2022/12/26 13:31:59;;;;;;;13.87;3.90;;;;;;;;;;4989898;28;20440;-70
2022/12/26 13:34:25;;;;;;;7.90;4.07;;;;;;;;;;4989879;28;20034;-71
2022/12/26 13:36:53;;;;;;;7.33;4.00;;;;;;;;;;4989447;28;20039;-73
2022/12/26 13:39:23;;;;;;;7.27;3.00;;;;;;;;;;4990512;28;20045;-71
2022/12/26 13:44:35;;;;;;;11.33;3.20;;;;;;;;;;4979320;28;20097;-70
2022/12/26 13:47:01;;;;;;;6.00;3.27;;;;;;;;;;4978525;28;20034;-70
2022/12/26 13:49:29;;;;;;;8.80;3.73;;;;;;;;;;4978841;28;20137;-70
2022/12/26 13:52:10;;;;;;;10.63;3.60;;;;;;;;;;4959755;28;20148;-69
2022/12/26 13:54:56;;;;;;;5.95;2.92;;;;;;;;;;4979663;28;20445;-70
2022/12/26 13:57:31;;;;;;;7.50;3.90;;;;;;;;;;4961707;28;20100;-71
2022/12/26 14:00:03;;;;;;;6.50;3.80;;;;;;;;;;4980416;28;20124;-72
2022/12/26 14:02:50;;;;;;;6.67;3.57;;;;;;;;;;4981206;28;20058;-73
2022/12/26 14:05:16;;;;;;;8.27;3.30;;;;;;;;;;4983482;28;20049;-73
2022/12/26 14:07:45;;;;;;;7.87;3.87;;;;;;;;;;4983845;28;20481;-71
2022/12/26 14:10:24;;;;;;;7.20;3.90;;;;;;;;;;4993416;28;20583;-73
2022/12/26 14:13:02;;;;;;;8.17;4.27;;;;;;;;;;4992116;28;20034;-72
2022/12/26 14:15:37;;;;;;;6.97;3.97;;;;;;;;;;4992918;28;20077;-72
2022/12/26 14:18:15;;;;;;;8.37;3.67;;;;;;;;;;4993034;28;20042;-72
2022/12/26 14:20:43;;;;;;;7.37;4.30;;;;;;;;;;4976643;28;20544;-72
2022/12/26 14:23:36;;;;;;;6.23;3.30;;;;;;;;;;4984637;28;20088;-73
2022/12/26 14:26:22;;;;;;;7.23;3.67;;;;;;;;;;4957424;28;20082;-72
2022/12/26 14:28:47;;;;;;;7.23;3.27;;;;;;;;;;4972843;28;20476;-72
2022/12/26 14:31:13;;;;;;;8.50;3.23;;;;;;;;;;4957123;28;20053;-72
2022/12/26 14:33:38;;;;;;;6.30;3.40;;;;;;;;;;4973529;28;20049;-72
2022/12/26 14:36:19;;;;;;;6.70;3.77;;;;;;;;;;4973162;28;20039;-71
2022/12/26 14:38:53;;;;;;;7.67;3.40;;;;;;;;;;4955336;28;20043;-71
2022/12/26 14:44:36;;;;;;;7.77;4.10;;;;;;;;;;4959096;28;20042;-71
2022/12/26 14:47:02;;;;;;;7.50;4.00;;;;;;;;;;4979995;28;20043;-71
2022/12/26 14:49:31;;;;;;;6.30;3.23;;;;;;;;;;4964858;28;20540;-70
2022/12/26 14:52:15;;;;;;;7.67;3.80;;;;;;;;;;4953872;28;20050;-72
2022/12/26 14:54:45;;;;;;;7.03;4.07;;;;;;;;;;4977693;28;20026;-73
2022/12/26 14:57:37;;;;;;;6.90;3.78;;;;;;;;;;4949776;28;21306;-72
2022/12/26 15:00:12;;;;;;;7.90;4.20;;;;;;;;;;4962849;28;20123;-73
2022/12/26 15:02:39;;;;;;;6.40;3.63;;;;;;;;;;4964362;28;20441;-73
2022/12/26 15:05:28;;;;;;;6.53;3.27;;;;;;;;;;4985267;28;20130;-74
2022/12/26 15:08:09;;;;;;;6.83;2.83;;;;;;;;;;4976734;28;20109;-73
2022/12/26 15:10:34;;;;;;;;;;;;;;;;;;4979660;28;20039;-74
2022/12/26 15:13:00;;;;;;;3.30;2.70;;;;;;;;;;4974479;28;19933;-74
2022/12/26 15:15:36;;;;;;;5.53;3.43;;;;;;;;;;4962119;28;20380;-74
2022/12/26 15:18:02;;;;;;;7.03;3.17;;;;;;;;;;4977354;28;20039;-74
2022/12/26 15:20:46;;;;;;;5.03;2.83;;;;;;;;;;4980972;28;20052;-73
2022/12/26 15:23:27;;;;;;;4.77;3.00;;;;;;;;;;4980815;28;20097;-73
2022/12/26 15:26:00;;;;;;;7.18;3.53;;;;;;;;;;4976266;28;20054;-74
2022/12/26 15:28:35;;;;;;;5.07;3.70;;;;;;;;;;4979835;28;20034;-73
2022/12/26 15:31:25;;;;;;;8.23;4.17;;;;;;;;;;4970941;28;20038;-73
2022/12/26 15:34:11;;;;;;;6.27;3.50;;;;;;;;;;4979378;28;20034;-74
2022/12/26 15:36:55;;;;;;;7.00;4.23;;;;;;;;;;4970287;28;20058;-73
2022/12/26 15:39:21;;;;;;;7.37;4.20;;;;;;;;;;4979332;28;20392;-73
2022/12/26 15:41:55;;;;;;;5.93;4.00;;;;;;;;;;4961983;28;20050;-74
2022/12/26 15:44:30;;;;;;;11.10;5.37;;;;;;;;;;4979346;28;20118;-75
2022/12/26 15:47:14;;;;;;;9.33;4.93;;;;;;;;;;4983178;28;20133;-73
2022/12/26 15:50:09;;;;;;;7.40;5.00;;;;;;;;;;4990816;28;20073;-73
2022/12/26 15:52:35;;;;;;;12.20;6.10;;;;;;;;;;4970800;28;20062;-75
2022/12/26 15:55:09;;;;;;;10.83;6.30;;;;;;;;;;4964224;28;20434;-74
2022/12/26 15:57:47;;;;;;;12.00;6.50;;;;;;;;;;4977443;28;20050;-71
2022/12/26 16:00:15;;;;;;;12.50;6.13;;;;;;;;;;4973337;28;20062;-73
2022/12/26 16:02:45;;;;;;;8.33;5.37;;;;;;;;;;4977876;28;20034;-70
2022/12/26 16:05:11;;;;;;;9.00;5.37;;;;;;;;;;4984726;28;20037;-74
2022/12/26 16:07:40;;;;;;;11.70;6.53;;;;;;;;;;4968996;28;20038;-74
2022/12/26 16:10:27;;;;;;;11.70;6.07;;;;;;;;;;4963557;28;20053;-73
2022/12/26 16:12:57;;;;;;;9.80;6.07;;;;;;;;;;4945055;28;20045;-74
2022/12/26 16:15:23;;;;;;;12.98;6.03;;;;;;;;;;4983542;28;20037;-72
2022/12/26 16:17:49;;;;;;;10.23;5.77;;;;;;;;;;4983134;28;20026;-74
2022/12/26 16:23:31;;;;;;;8.30;5.63;;;;;;;;;;4990182;28;20050;-71
2022/12/26 16:25:59;;;;;;;9.33;5.57;;;;;;;;;;4991852;28;20112;-74
2022/12/26 16:28:42;;;;;;;10.97;5.87;;;;;;;;;;4990593;28;20491;-74
2022/12/26 16:31:08;;;;;;;10.43;6.40;;;;;;;;;;4974134;28;20034;-74
2022/12/26 16:33:39;;;;;;;8.77;5.80;;;;;;;;;;4991175;28;20038;-73
2022/12/26 16:36:05;;;;;;;11.65;6.38;;;;;;;;;;4990195;28;20061;-73
2022/12/26 16:38:31;;;;;;;9.97;6.33;;;;;;;;;;4990249;28;20062;-73
2022/12/26 16:40:59;;;;;;;10.10;6.17;;;;;;;;;;4989886;28;20061;-72
2022/12/26 16:43:24;;;;;;;14.60;7.43;;;;;;;;;;4990663;28;20532;-74
2022/12/26 16:45:51;;;;;;;7.97;4.90;;;;;;;;;;4989865;28;20136;-73
2022/12/26 16:48:19;;;;;;;10.03;5.27;;;;;;;;;;4990379;28;20080;-74
2022/12/26 16:50:49;;;;;;;6.57;4.33;;;;;;;;;;4957777;28;20543;-73
2022/12/26 16:53:19;;;;;;;8.70;3.67;;;;;;;;;;4989584;28;20030;-74
2022/12/26 16:55:47;;;;;;;6.47;3.63;;;;;;;;;;4990705;28;20073;-74
2022/12/26 16:58:14;;;;;;;6.40;3.67;;;;;;;;;;4973606;28;20034;-70
2022/12/26 17:00:44;;;;;;;7.37;3.80;;;;;;;;;;4990997;28;20049;-74
2022/12/26 17:03:18;;;;;;;5.57;3.70;;;;;;;;;;4990464;28;20070;-73
2022/12/26 17:05:45;;;;;;;4.60;3.13;;;;;;;;;;4972677;28;20038;-71
2022/12/26 17:08:12;;;;;;;5.13;3.20;;;;;;;;;;4990334;28;20177;-72
2022/12/26 17:10:44;;;;;;;5.13;3.13;;;;;;;;;;4973404;28;20042;-70
2022/12/26 17:13:16;;;;;;;5.63;3.23;;;;;;;;;;4972741;28;20041;-73
2022/12/26 17:15:47;;;;;;;4.60;2.80;;;;;;;;;;4972569;28;20034;-72
2022/12/26 17:18:30;;;;;;;6.43;3.30;;;;;;;;;;4988327;28;20099;-71
2022/12/26 17:21:13;;;;;;;5.80;3.30;;;;;;;;;;4972902;28;20050;-72
2022/12/26 17:23:39;;;;;;;4.23;2.87;;;;;;;;;;4955749;28;20415;-74
2022/12/26 17:26:18;;;;;;;5.63;3.63;;;;;;;;;;4956386;28;20038;-74
2022/12/26 17:28:44;;;;;;;7.50;3.50;;;;;;;;;;4989228;28;20046;-72
2022/12/26 17:31:11;;;;;;;6.33;3.47;;;;;;;;;;4989074;28;20100;-73
2022/12/26 17:33:36;;;;;;;5.90;2.30;;;;;;;;;;4990626;28;20509;-72